sensor_id;sensor_type;location;lat;lon;timestamp;P1;durP1;ratioP1;P2;durP2;ratioP2
48727;SDS011;34527;45.618;5.130;2023-05-21T00:00:18;10.95;;;9.18;;
48727;SDS011;34527;45.618;5.130;2023-05-21T00:02:44;10.82;;;9.57;;
48727;SDS011;34527;45.618;5.130;2023-05-21T00:05:10;10.38;;;9.27;;
48727;SDS011;34527;45.618;5.130;2023-05-21T00:07:38;11.07;;;9.63;;
48727;SDS011;34527;45.618;5.130;2023-05-21T00:10:04;10.65;;;8.93;;
48727;SDS011;34527;45.618;5.130;2023-05-21T00:12:30;10.13;;;8.80;;
48727;SDS011;34527;45.618;5.130;2023-05-21T00:14:56;11.07;;;9.98;;
48727;SDS011;34527;45.618;5.130;2023-05-21T00:17:22;11.80;;;9.45;;
48727;SDS011;34527;45.618;5.130;2023-05-21T00:19:50;11.98;;;10.02;;
48727;SDS011;34527;45.618;5.130;2023-05-21T00:22:16;11.05;;;9.63;;
48727;SDS011;34527;45.618;5.130;2023-05-21T00:24:41;12.00;;;9.00;;
48727;SDS011;34527;45.618;5.130;2023-05-21T00:27:09;11.57;;;9.55;;
48727;SDS011;34527;45.618;5.130;2023-05-21T00:29:35;12.57;;;10.40;;
48727;SDS011;34527;45.618;5.130;2023-05-21T00:32:01;12.90;;;10.52;;
48727;SDS011;34527;45.618;5.130;2023-05-21T00:34:27;12.82;;;10.57;;
48727;SDS011;34527;45.618;5.130;2023-05-21T00:36:53;11.63;;;10.43;;
48727;SDS011;34527;45.618;5.130;2023-05-21T00:39:19;12.02;;;9.95;;
48727;SDS011;34527;45.618;5.130;2023-05-21T00:41:45;10.77;;;9.77;;
48727;SDS011;34527;45.618;5.130;2023-05-21T00:44:12;12.25;;;10.05;;
48727;SDS011;34527;45.618;5.130;2023-05-21T00:46:38;11.55;;;10.43;;
48727;SDS011;34527;45.618;5.130;2023-05-21T00:49:05;11.88;;;10.27;;
48727;SDS011;34527;45.618;5.130;2023-05-21T00:51:30;15.05;;;10.60;;
48727;SDS011;34527;45.618;5.130;2023-05-21T00:53:56;11.60;;;10.35;;
48727;SDS011;34527;45.618;5.130;2023-05-21T00:56:23;14.60;;;10.77;;
48727;SDS011;34527;45.618;5.130;2023-05-21T00:58:51;13.27;;;10.57;;
48727;SDS011;34527;45.618;5.130;2023-05-21T01:01:18;14.48;;;10.77;;
48727;SDS011;34527;45.618;5.130;2023-05-21T01:03:43;12.93;;;10.88;;
48727;SDS011;34527;45.618;5.130;2023-05-21T01:06:10;15.93;;;11.00;;
48727;SDS011;34527;45.618;5.130;2023-05-21T01:08:37;12.38;;;9.90;;
48727;SDS011;34527;45.618;5.130;2023-05-21T01:11:05;14.60;;;11.45;;
48727;SDS011;34527;45.618;5.130;2023-05-21T01:13:32;11.90;;;10.68;;
48727;SDS011;34527;45.618;5.130;2023-05-21T01:16:01;12.38;;;10.98;;
48727;SDS011;34527;45.618;5.130;2023-05-21T01:18:30;13.23;;;10.57;;
48727;SDS011;34527;45.618;5.130;2023-05-21T01:20:58;12.18;;;10.93;;
48727;SDS011;34527;45.618;5.130;2023-05-21T01:23:28;13.98;;;10.80;;
48727;SDS011;34527;45.618;5.130;2023-05-21T01:25:54;12.18;;;10.85;;
48727;SDS011;34527;45.618;5.130;2023-05-21T01:28:19;11.88;;;10.63;;
48727;SDS011;34527;45.618;5.130;2023-05-21T01:30:45;14.95;;;10.75;;
48727;SDS011;34527;45.618;5.130;2023-05-21T01:36:07;13.48;;;11.48;;
48727;SDS011;34527;45.618;5.130;2023-05-21T01:38:59;12.77;;;11.35;;
48727;SDS011;34527;45.618;5.130;2023-05-21T01:41:33;12.23;;;10.95;;
48727;SDS011;34527;45.618;5.130;2023-05-21T01:44:05;12.20;;;10.95;;
48727;SDS011;34527;45.618;5.130;2023-05-21T01:46:33;15.27;;;11.77;;
48727;SDS011;34527;45.618;5.130;2023-05-21T01:49:00;13.90;;;10.45;;
48727;SDS011;34527;45.618;5.130;2023-05-21T01:51:27;15.52;;;11.20;;
48727;SDS011;34527;45.618;5.130;2023-05-21T01:53:54;13.07;;;11.40;;
48727;SDS011;34527;45.618;5.130;2023-05-21T01:56:19;12.73;;;11.43;;
48727;SDS011;34527;45.618;5.130;2023-05-21T01:58:49;13.43;;;11.60;;
48727;SDS011;34527;45.618;5.130;2023-05-21T02:01:15;16.08;;;11.23;;
48727;SDS011;34527;45.618;5.130;2023-05-21T02:03:41;13.73;;;10.85;;
48727;SDS011;34527;45.618;5.130;2023-05-21T02:06:06;13.65;;;12.20;;
48727;SDS011;34527;45.618;5.130;2023-05-21T02:08:32;13.23;;;11.80;;
48727;SDS011;34527;45.618;5.130;2023-05-21T02:10:58;16.58;;;11.43;;
48727;SDS011;34527;45.618;5.130;2023-05-21T02:13:23;14.30;;;11.57;;
48727;SDS011;34527;45.618;5.130;2023-05-21T02:15:49;15.60;;;11.63;;
48727;SDS011;34527;45.618;5.130;2023-05-21T02:18:18;12.75;;;11.23;;
48727;SDS011;34527;45.618;5.130;2023-05-21T02:20:45;12.98;;;11.70;;
48727;SDS011;34527;45.618;5.130;2023-05-21T02:23:11;12.77;;;10.75;;
48727;SDS011;34527;45.618;5.130;2023-05-21T02:25:37;15.02;;;11.25;;
48727;SDS011;34527;45.618;5.130;2023-05-21T02:28:02;13.30;;;11.02;;
48727;SDS011;34527;45.618;5.130;2023-05-21T02:30:28;14.38;;;12.07;;
48727;SDS011;34527;45.618;5.130;2023-05-21T02:32:54;12.73;;;9.80;;
48727;SDS011;34527;45.618;5.130;2023-05-21T02:35:19;14.20;;;11.45;;
48727;SDS011;34527;45.618;5.130;2023-05-21T02:37:45;15.80;;;12.20;;
48727;SDS011;34527;45.618;5.130;2023-05-21T02:40:11;12.27;;;10.73;;
48727;SDS011;34527;45.618;5.130;2023-05-21T02:42:37;13.65;;;12.25;;
48727;SDS011;34527;45.618;5.130;2023-05-21T02:45:05;12.65;;;11.35;;
48727;SDS011;34527;45.618;5.130;2023-05-21T02:47:31;16.40;;;11.85;;
48727;SDS011;34527;45.618;5.130;2023-05-21T02:49:58;15.25;;;11.65;;
48727;SDS011;34527;45.618;5.130;2023-05-21T02:52:25;13.45;;;12.02;;
48727;SDS011;34527;45.618;5.130;2023-05-21T02:54:51;12.93;;;11.63;;
48727;SDS011;34527;45.618;5.130;2023-05-21T02:57:16;14.50;;;11.75;;
48727;SDS011;34527;45.618;5.130;2023-05-21T02:59:42;13.30;;;10.88;;
48727;SDS011;34527;45.618;5.130;2023-05-21T03:02:09;14.93;;;11.70;;
48727;SDS011;34527;45.618;5.130;2023-05-21T03:04:34;13.10;;;11.52;;
48727;SDS011;34527;45.618;5.130;2023-05-21T03:07:03;14.55;;;11.40;;
48727;SDS011;34527;45.618;5.130;2023-05-21T03:09:29;15.60;;;11.30;;
48727;SDS011;34527;45.618;5.130;2023-05-21T03:11:55;13.68;;;10.88;;
48727;SDS011;34527;45.618;5.130;2023-05-21T03:14:20;13.38;;;12.00;;
48727;SDS011;34527;45.618;5.130;2023-05-21T03:16:47;16.50;;;13.00;;
48727;SDS011;34527;45.618;5.130;2023-05-21T03:19:13;16.85;;;12.48;;
48727;SDS011;34527;45.618;5.130;2023-05-21T03:21:39;12.30;;;11.00;;
48727;SDS011;34527;45.618;5.130;2023-05-21T03:24:05;13.95;;;12.35;;
48727;SDS011;34527;45.618;5.130;2023-05-21T03:26:31;14.00;;;12.55;;
48727;SDS011;34527;45.618;5.130;2023-05-21T03:28:57;14.50;;;13.00;;
48727;SDS011;34527;45.618;5.130;2023-05-21T03:31:24;14.10;;;12.18;;
48727;SDS011;34527;45.618;5.130;2023-05-21T03:33:50;14.02;;;12.55;;
48727;SDS011;34527;45.618;5.130;2023-05-21T03:36:16;13.63;;;12.27;;
48727;SDS011;34527;45.618;5.130;2023-05-21T03:38:42;13.25;;;11.85;;
48727;SDS011;34527;45.618;5.130;2023-05-21T03:41:08;14.70;;;13.20;;
48727;SDS011;34527;45.618;5.130;2023-05-21T03:43:35;13.10;;;11.70;;
48727;SDS011;34527;45.618;5.130;2023-05-21T03:46:00;15.82;;;12.32;;
48727;SDS011;34527;45.618;5.130;2023-05-21T03:48:26;12.63;;;11.32;;
48727;SDS011;34527;45.618;5.130;2023-05-21T03:50:52;15.88;;;11.48;;
48727;SDS011;34527;45.618;5.130;2023-05-21T03:53:17;12.65;;;10.95;;
48727;SDS011;34527;45.618;5.130;2023-05-21T03:55:43;14.35;;;12.07;;
48727;SDS011;34527;45.618;5.130;2023-05-21T03:58:09;14.15;;;12.63;;
48727;SDS011;34527;45.618;5.130;2023-05-21T04:00:35;16.75;;;11.68;;
48727;SDS011;34527;45.618;5.130;2023-05-21T04:03:04;13.32;;;10.95;;
48727;SDS011;34527;45.618;5.130;2023-05-21T04:05:30;13.32;;;11.88;;
48727;SDS011;34527;45.618;5.130;2023-05-21T04:07:57;14.25;;;12.77;;
48727;SDS011;34527;45.618;5.130;2023-05-21T04:10:24;14.57;;;12.18;;
48727;SDS011;34527;45.618;5.130;2023-05-21T04:12:49;13.57;;;12.25;;
48727;SDS011;34527;45.618;5.130;2023-05-21T04:15:16;14.05;;;12.45;;
48727;SDS011;34527;45.618;5.130;2023-05-21T04:17:42;16.20;;;12.57;;
48727;SDS011;34527;45.618;5.130;2023-05-21T04:20:09;16.83;;;12.52;;
48727;SDS011;34527;45.618;5.130;2023-05-21T04:22:37;14.20;;;11.50;;
48727;SDS011;34527;45.618;5.130;2023-05-21T04:25:03;13.70;;;11.50;;
48727;SDS011;34527;45.618;5.130;2023-05-21T04:27:29;14.57;;;13.02;;
48727;SDS011;34527;45.618;5.130;2023-05-21T04:29:55;21.33;;;13.25;;
48727;SDS011;34527;45.618;5.130;2023-05-21T04:32:22;14.65;;;13.00;;
48727;SDS011;34527;45.618;5.130;2023-05-21T04:34:48;16.52;;;12.25;;
48727;SDS011;34527;45.618;5.130;2023-05-21T04:37:14;17.63;;;12.73;;
48727;SDS011;34527;45.618;5.130;2023-05-21T04:39:42;14.70;;;12.50;;
48727;SDS011;34527;45.618;5.130;2023-05-21T04:42:07;13.65;;;12.32;;
48727;SDS011;34527;45.618;5.130;2023-05-21T04:44:34;13.25;;;11.95;;
48727;SDS011;34527;45.618;5.130;2023-05-21T04:47:01;15.57;;;12.38;;
48727;SDS011;34527;45.618;5.130;2023-05-21T04:49:27;14.20;;;11.38;;
48727;SDS011;34527;45.618;5.130;2023-05-21T04:51:52;13.05;;;11.80;;
48727;SDS011;34527;45.618;5.130;2023-05-21T04:54:18;12.45;;;11.15;;
48727;SDS011;34527;45.618;5.130;2023-05-21T04:56:44;14.00;;;11.52;;
48727;SDS011;34527;45.618;5.130;2023-05-21T04:59:11;15.02;;;12.10;;
48727;SDS011;34527;45.618;5.130;2023-05-21T05:01:37;13.63;;;12.15;;
48727;SDS011;34527;45.618;5.130;2023-05-21T05:04:03;13.82;;;11.57;;
48727;SDS011;34527;45.618;5.130;2023-05-21T05:06:29;12.63;;;11.32;;
48727;SDS011;34527;45.618;5.130;2023-05-21T05:08:55;13.15;;;10.88;;
48727;SDS011;34527;45.618;5.130;2023-05-21T05:11:21;14.63;;;11.52;;
48727;SDS011;34527;45.618;5.130;2023-05-21T05:13:47;13.30;;;11.50;;
48727;SDS011;34527;45.618;5.130;2023-05-21T05:16:12;13.27;;;11.30;;
48727;SDS011;34527;45.618;5.130;2023-05-21T05:18:41;12.68;;;11.38;;
48727;SDS011;34527;45.618;5.130;2023-05-21T05:21:06;11.38;;;10.15;;
48727;SDS011;34527;45.618;5.130;2023-05-21T05:23:32;13.63;;;10.45;;
48727;SDS011;34527;45.618;5.130;2023-05-21T05:25:58;12.43;;;10.32;;
48727;SDS011;34527;45.618;5.130;2023-05-21T05:28:24;12.18;;;10.75;;
48727;SDS011;34527;45.618;5.130;2023-05-21T05:30:49;12.43;;;11.23;;
48727;SDS011;34527;45.618;5.130;2023-05-21T05:33:15;12.32;;;10.40;;
48727;SDS011;34527;45.618;5.130;2023-05-21T05:35:40;12.80;;;10.43;;
48727;SDS011;34527;45.618;5.130;2023-05-21T05:38:06;12.00;;;10.10;;
48727;SDS011;34527;45.618;5.130;2023-05-21T05:40:32;13.88;;;12.23;;
48727;SDS011;34527;45.618;5.130;2023-05-21T05:42:58;14.15;;;12.30;;
48727;SDS011;34527;45.618;5.130;2023-05-21T05:45:24;14.65;;;12.32;;
48727;SDS011;34527;45.618;5.130;2023-05-21T05:47:50;14.13;;;11.98;;
48727;SDS011;34527;45.618;5.130;2023-05-21T05:50:16;12.23;;;10.85;;
48727;SDS011;34527;45.618;5.130;2023-05-21T05:52:41;13.52;;;12.13;;
48727;SDS011;34527;45.618;5.130;2023-05-21T05:55:08;12.38;;;11.10;;
48727;SDS011;34527;45.618;5.130;2023-05-21T05:57:36;14.32;;;12.02;;
48727;SDS011;34527;45.618;5.130;2023-05-21T06:00:02;13.27;;;11.88;;
48727;SDS011;34527;45.618;5.130;2023-05-21T06:02:28;12.52;;;11.23;;
48727;SDS011;34527;45.618;5.130;2023-05-21T06:04:54;12.70;;;10.80;;
48727;SDS011;34527;45.618;5.130;2023-05-21T06:07:20;12.57;;;11.30;;
48727;SDS011;34527;45.618;5.130;2023-05-21T06:09:45;12.50;;;11.30;;
48727;SDS011;34527;45.618;5.130;2023-05-21T06:12:11;12.75;;;10.77;;
48727;SDS011;34527;45.618;5.130;2023-05-21T06:14:39;11.75;;;10.57;;
48727;SDS011;34527;45.618;5.130;2023-05-21T06:17:06;13.60;;;11.25;;
48727;SDS011;34527;45.618;5.130;2023-05-21T06:19:31;12.48;;;10.68;;
48727;SDS011;34527;45.618;5.130;2023-05-21T06:21:57;12.77;;;11.10;;
48727;SDS011;34527;45.618;5.130;2023-05-21T06:24:22;13.85;;;11.73;;
48727;SDS011;34527;45.618;5.130;2023-05-21T06:26:48;12.80;;;11.38;;
48727;SDS011;34527;45.618;5.130;2023-05-21T06:29:13;12.32;;;10.77;;
48727;SDS011;34527;45.618;5.130;2023-05-21T06:31:41;12.70;;;11.30;;
48727;SDS011;34527;45.618;5.130;2023-05-21T06:34:06;12.50;;;11.13;;
48727;SDS011;34527;45.618;5.130;2023-05-21T06:36:32;12.80;;;10.95;;
48727;SDS011;34527;45.618;5.130;2023-05-21T06:38:58;11.40;;;10.15;;
48727;SDS011;34527;45.618;5.130;2023-05-21T06:41:25;12.52;;;9.38;;
48727;SDS011;34527;45.618;5.130;2023-05-21T06:43:50;12.05;;;10.70;;
48727;SDS011;34527;45.618;5.130;2023-05-21T06:46:16;12.80;;;11.18;;
48727;SDS011;34527;45.618;5.130;2023-05-21T06:48:42;10.98;;;9.90;;
48727;SDS011;34527;45.618;5.130;2023-05-21T06:51:08;13.50;;;11.48;;
48727;SDS011;34527;45.618;5.130;2023-05-21T06:53:34;11.85;;;10.60;;
48727;SDS011;34527;45.618;5.130;2023-05-21T06:55:59;17.52;;;13.38;;
48727;SDS011;34527;45.618;5.130;2023-05-21T06:58:25;12.05;;;10.85;;
48727;SDS011;34527;45.618;5.130;2023-05-21T07:00:55;15.02;;;11.10;;
48727;SDS011;34527;45.618;5.130;2023-05-21T07:03:23;12.38;;;10.82;;
48727;SDS011;34527;45.618;5.130;2023-05-21T07:05:49;13.13;;;10.90;;
48727;SDS011;34527;45.618;5.130;2023-05-21T07:08:15;13.15;;;10.93;;
48727;SDS011;34527;45.618;5.130;2023-05-21T07:10:41;11.18;;;10.05;;
48727;SDS011;34527;45.618;5.130;2023-05-21T07:13:07;23.90;;;18.50;;
48727;SDS011;34527;45.618;5.130;2023-05-21T07:15:32;14.35;;;11.80;;
48727;SDS011;34527;45.618;5.130;2023-05-21T07:17:58;14.00;;;11.65;;
48727;SDS011;34527;45.618;5.130;2023-05-21T07:20:23;14.10;;;11.95;;
48727;SDS011;34527;45.618;5.130;2023-05-21T07:22:49;12.18;;;10.88;;
48727;SDS011;34527;45.618;5.130;2023-05-21T07:25:15;12.50;;;10.43;;
48727;SDS011;34527;45.618;5.130;2023-05-21T07:27:40;11.75;;;10.52;;
48727;SDS011;34527;45.618;5.130;2023-05-21T07:30:07;12.57;;;11.30;;
48727;SDS011;34527;45.618;5.130;2023-05-21T07:32:33;12.40;;;10.93;;
48727;SDS011;34527;45.618;5.130;2023-05-21T07:34:59;13.93;;;12.00;;
48727;SDS011;34527;45.618;5.130;2023-05-21T07:37:27;12.93;;;11.57;;
48727;SDS011;34527;45.618;5.130;2023-05-21T07:39:53;14.43;;;12.32;;
48727;SDS011;34527;45.618;5.130;2023-05-21T07:42:20;13.98;;;12.52;;
48727;SDS011;34527;45.618;5.130;2023-05-21T07:44:46;13.02;;;11.70;;
48727;SDS011;34527;45.618;5.130;2023-05-21T07:47:11;13.25;;;11.95;;
48727;SDS011;34527;45.618;5.130;2023-05-21T07:49:37;12.27;;;11.07;;
48727;SDS011;34527;45.618;5.130;2023-05-21T07:52:03;13.63;;;12.20;;
48727;SDS011;34527;45.618;5.130;2023-05-21T07:54:29;13.38;;;12.00;;
48727;SDS011;34527;45.618;5.130;2023-05-21T07:56:54;13.13;;;11.82;;
48727;SDS011;34527;45.618;5.130;2023-05-21T07:59:20;13.48;;;11.88;;
48727;SDS011;34527;45.618;5.130;2023-05-21T08:01:46;14.98;;;11.45;;
48727;SDS011;34527;45.618;5.130;2023-05-21T08:04:11;13.45;;;11.95;;
48727;SDS011;34527;45.618;5.130;2023-05-21T08:06:37;14.38;;;12.85;;
48727;SDS011;34527;45.618;5.130;2023-05-21T08:09:02;14.38;;;11.70;;
48727;SDS011;34527;45.618;5.130;2023-05-21T08:11:30;14.00;;;12.55;;
48727;SDS011;34527;45.618;5.130;2023-05-21T08:13:55;16.13;;;13.88;;
48727;SDS011;34527;45.618;5.130;2023-05-21T08:16:21;14.80;;;12.40;;
48727;SDS011;34527;45.618;5.130;2023-05-21T08:18:47;15.13;;;13.48;;
48727;SDS011;34527;45.618;5.130;2023-05-21T08:21:13;15.68;;;13.90;;
48727;SDS011;34527;45.618;5.130;2023-05-21T08:23:40;14.73;;;12.90;;
48727;SDS011;34527;45.618;5.130;2023-05-21T08:26:05;14.55;;;12.50;;
48727;SDS011;34527;45.618;5.130;2023-05-21T08:28:32;14.00;;;12.43;;
48727;SDS011;34527;45.618;5.130;2023-05-21T08:30:59;14.98;;;12.63;;
48727;SDS011;34527;45.618;5.130;2023-05-21T08:33:26;14.82;;;13.32;;
48727;SDS011;34527;45.618;5.130;2023-05-21T08:35:51;14.43;;;13.02;;
48727;SDS011;34527;45.618;5.130;2023-05-21T08:38:17;14.05;;;12.63;;
48727;SDS011;34527;45.618;5.130;2023-05-21T08:40:44;14.43;;;12.90;;
48727;SDS011;34527;45.618;5.130;2023-05-21T08:43:11;14.68;;;13.18;;
48727;SDS011;34527;45.618;5.130;2023-05-21T08:45:40;14.48;;;12.98;;
48727;SDS011;34527;45.618;5.130;2023-05-21T08:48:09;15.23;;;13.63;;
48727;SDS011;34527;45.618;5.130;2023-05-21T08:50:37;14.93;;;13.10;;
48727;SDS011;34527;45.618;5.130;2023-05-21T08:53:04;14.45;;;12.98;;
48727;SDS011;34527;45.618;5.130;2023-05-21T08:55:29;16.67;;;13.82;;
48727;SDS011;34527;45.618;5.130;2023-05-21T08:57:56;15.23;;;13.48;;
48727;SDS011;34527;45.618;5.130;2023-05-21T09:00:22;14.10;;;12.80;;
48727;SDS011;34527;45.618;5.130;2023-05-21T09:02:48;15.43;;;13.93;;
48727;SDS011;34527;45.618;5.130;2023-05-21T09:05:15;15.65;;;13.95;;
48727;SDS011;34527;45.618;5.130;2023-05-21T09:07:51;14.60;;;13.02;;
48727;SDS011;34527;45.618;5.130;2023-05-21T09:10:25;15.45;;;13.77;;
48727;SDS011;34527;45.618;5.130;2023-05-21T09:12:58;15.38;;;13.90;;
48727;SDS011;34527;45.618;5.130;2023-05-21T09:15:25;14.63;;;13.13;;
48727;SDS011;34527;45.618;5.130;2023-05-21T09:17:51;15.98;;;13.15;;
48727;SDS011;34527;45.618;5.130;2023-05-21T09:20:16;15.07;;;13.43;;
48727;SDS011;34527;45.618;5.130;2023-05-21T09:22:42;14.60;;;13.10;;
48727;SDS011;34527;45.618;5.130;2023-05-21T09:25:10;14.63;;;13.15;;
48727;SDS011;34527;45.618;5.130;2023-05-21T09:27:37;15.05;;;13.45;;
48727;SDS011;34527;45.618;5.130;2023-05-21T09:30:04;15.23;;;13.57;;
48727;SDS011;34527;45.618;5.130;2023-05-21T09:32:37;14.77;;;12.73;;
48727;SDS011;34527;45.618;5.130;2023-05-21T09:35:10;15.65;;;13.90;;
48727;SDS011;34527;45.618;5.130;2023-05-21T09:37:41;13.93;;;12.52;;
48727;SDS011;34527;45.618;5.130;2023-05-21T09:40:09;16.10;;;13.18;;
48727;SDS011;34527;45.618;5.130;2023-05-21T09:42:37;14.50;;;13.07;;
48727;SDS011;34527;45.618;5.130;2023-05-21T09:45:04;14.50;;;12.98;;
48727;SDS011;34527;45.618;5.130;2023-05-21T09:47:30;16.13;;;14.48;;
48727;SDS011;34527;45.618;5.130;2023-05-21T09:49:59;15.40;;;13.80;;
48727;SDS011;34527;45.618;5.130;2023-05-21T09:52:25;13.85;;;12.55;;
48727;SDS011;34527;45.618;5.130;2023-05-21T09:54:52;16.15;;;14.40;;
48727;SDS011;34527;45.618;5.130;2023-05-21T09:57:27;15.23;;;13.50;;
48727;SDS011;34527;45.618;5.130;2023-05-21T09:59:53;15.65;;;14.02;;
48727;SDS011;34527;45.618;5.130;2023-05-21T10:02:20;15.73;;;14.07;;
48727;SDS011;34527;45.618;5.130;2023-05-21T10:04:48;15.35;;;13.63;;
48727;SDS011;34527;45.618;5.130;2023-05-21T10:07:18;16.17;;;13.90;;
48727;SDS011;34527;45.618;5.130;2023-05-21T10:09:52;14.23;;;12.70;;
48727;SDS011;34527;45.618;5.130;2023-05-21T10:12:19;14.40;;;13.00;;
48727;SDS011;34527;45.618;5.130;2023-05-21T10:14:49;15.23;;;13.70;;
48727;SDS011;34527;45.618;5.130;2023-05-21T10:17:18;14.40;;;13.00;;
48727;SDS011;34527;45.618;5.130;2023-05-21T10:19:45;14.98;;;13.32;;
48727;SDS011;34527;45.618;5.130;2023-05-21T10:22:11;13.68;;;12.38;;
48727;SDS011;34527;45.618;5.130;2023-05-21T10:24:38;14.85;;;13.27;;
48727;SDS011;34527;45.618;5.130;2023-05-21T10:27:04;14.77;;;13.27;;
48727;SDS011;34527;45.618;5.130;2023-05-21T10:29:31;13.40;;;12.18;;
48727;SDS011;34527;45.618;5.130;2023-05-21T10:31:59;13.35;;;11.98;;
48727;SDS011;34527;45.618;5.130;2023-05-21T10:34:26;13.88;;;12.43;;
48727;SDS011;34527;45.618;5.130;2023-05-21T10:36:53;14.80;;;13.40;;
48727;SDS011;34527;45.618;5.130;2023-05-21T10:39:21;13.48;;;12.05;;
48727;SDS011;34527;45.618;5.130;2023-05-21T10:42:13;15.00;;;13.35;;
48727;SDS011;34527;45.618;5.130;2023-05-21T10:48:01;13.57;;;12.27;;
48727;SDS011;34527;45.618;5.130;2023-05-21T11:01:55;12.10;;;10.90;;
48727;SDS011;34527;45.618;5.130;2023-05-21T11:04:22;12.60;;;11.35;;
48727;SDS011;34527;45.618;5.130;2023-05-21T11:06:50;11.65;;;10.55;;
48727;SDS011;34527;45.618;5.130;2023-05-21T11:09:15;12.05;;;10.90;;
48727;SDS011;34527;45.618;5.130;2023-05-21T11:14:26;11.50;;;10.40;;
48727;SDS011;34527;45.618;5.130;2023-05-21T11:17:09;12.88;;;11.57;;
48727;SDS011;34527;45.618;5.130;2023-05-21T11:20:02;15.55;;;11.15;;
48727;SDS011;34527;45.618;5.130;2023-05-21T11:22:31;11.38;;;10.23;;
48727;SDS011;34527;45.618;5.130;2023-05-21T11:25:00;11.98;;;10.88;;
48727;SDS011;34527;45.618;5.130;2023-05-21T11:27:36;12.43;;;11.23;;
48727;SDS011;34527;45.618;5.130;2023-05-21T11:30:11;13.43;;;11.52;;
48727;SDS011;34527;45.618;5.130;2023-05-21T11:33:16;11.68;;;10.60;;
48727;SDS011;34527;45.618;5.130;2023-05-21T11:35:56;12.30;;;11.10;;
48727;SDS011;34527;45.618;5.130;2023-05-21T11:38:30;11.48;;;10.38;;
48727;SDS011;34527;45.618;5.130;2023-05-21T11:41:00;12.35;;;10.82;;
48727;SDS011;34527;45.618;5.130;2023-05-21T11:43:27;12.48;;;11.18;;
48727;SDS011;34527;45.618;5.130;2023-05-21T11:45:53;11.93;;;10.75;;
48727;SDS011;34527;45.618;5.130;2023-05-21T11:48:20;11.88;;;10.80;;
48727;SDS011;34527;45.618;5.130;2023-05-21T11:50:48;12.48;;;10.68;;
48727;SDS011;34527;45.618;5.130;2023-05-21T11:53:14;13.48;;;9.70;;
48727;SDS011;34527;45.618;5.130;2023-05-21T11:55:40;11.32;;;10.20;;
48727;SDS011;34527;45.618;5.130;2023-05-21T11:58:07;10.85;;;9.73;;
48727;SDS011;34527;45.618;5.130;2023-05-21T12:00:37;10.30;;;9.30;;
48727;SDS011;34527;45.618;5.130;2023-05-21T12:03:05;10.75;;;9.75;;
48727;SDS011;34527;45.618;5.130;2023-05-21T12:05:47;10.77;;;9.77;;
48727;SDS011;34527;45.618;5.130;2023-05-21T12:08:23;12.40;;;10.82;;
48727;SDS011;34527;45.618;5.130;2023-05-21T12:10:53;11.20;;;10.10;;
48727;SDS011;34527;45.618;5.130;2023-05-21T12:13:22;11.68;;;10.57;;
48727;SDS011;34527;45.618;5.130;2023-05-21T12:15:49;11.23;;;10.10;;
48727;SDS011;34527;45.618;5.130;2023-05-21T12:18:17;13.05;;;10.40;;
48727;SDS011;34527;45.618;5.130;2023-05-21T12:20:43;12.95;;;11.75;;
48727;SDS011;34527;45.618;5.130;2023-05-21T12:23:17;14.27;;;10.88;;
48727;SDS011;34527;45.618;5.130;2023-05-21T12:25:50;14.48;;;12.82;;
48727;SDS011;34527;45.618;5.130;2023-05-21T12:28:18;13.18;;;11.90;;
48727;SDS011;34527;45.618;5.130;2023-05-21T12:30:45;11.88;;;10.68;;
48727;SDS011;34527;45.618;5.130;2023-05-21T12:33:12;11.27;;;10.15;;
48727;SDS011;34527;45.618;5.130;2023-05-21T12:35:38;12.10;;;10.40;;
48727;SDS011;34527;45.618;5.130;2023-05-21T12:38:03;11.55;;;10.45;;
48727;SDS011;34527;45.618;5.130;2023-05-21T12:40:34;12.70;;;11.40;;
48727;SDS011;34527;45.618;5.130;2023-05-21T12:43:04;12.20;;;11.02;;
48727;SDS011;34527;45.618;5.130;2023-05-21T12:45:31;12.73;;;11.43;;
48727;SDS011;34527;45.618;5.130;2023-05-21T12:48:00;13.32;;;11.68;;
48727;SDS011;34527;45.618;5.130;2023-05-21T12:50:27;13.57;;;12.18;;
48727;SDS011;34527;45.618;5.130;2023-05-21T12:52:53;13.00;;;11.68;;
48727;SDS011;34527;45.618;5.130;2023-05-21T12:55:20;12.73;;;10.70;;
48727;SDS011;34527;45.618;5.130;2023-05-21T12:57:47;13.13;;;11.77;;
48727;SDS011;34527;45.618;5.130;2023-05-21T13:00:12;12.75;;;11.43;;
48727;SDS011;34527;45.618;5.130;2023-05-21T13:05:06;12.93;;;11.60;;
48727;SDS011;34527;45.618;5.130;2023-05-21T13:07:34;12.55;;;11.45;;
48727;SDS011;34527;45.618;5.130;2023-05-21T13:10:02;11.90;;;10.65;;
48727;SDS011;34527;45.618;5.130;2023-05-21T13:12:29;13.30;;;11.90;;
48727;SDS011;34527;45.618;5.130;2023-05-21T13:14:57;12.52;;;11.32;;
48727;SDS011;34527;45.618;5.130;2023-05-21T13:17:24;11.68;;;10.57;;
48727;SDS011;34527;45.618;5.130;2023-05-21T13:20:11;12.05;;;10.95;;
48727;SDS011;34527;45.618;5.130;2023-05-21T13:22:51;12.57;;;11.27;;
48727;SDS011;34527;45.618;5.130;2023-05-21T13:25:17;13.63;;;12.38;;
48727;SDS011;34527;45.618;5.130;2023-05-21T13:27:45;12.18;;;10.98;;
48727;SDS011;34527;45.618;5.130;2023-05-21T13:30:12;12.18;;;11.07;;
48727;SDS011;34527;45.618;5.130;2023-05-21T13:32:38;12.20;;;10.95;;
48727;SDS011;34527;45.618;5.130;2023-05-21T13:35:04;12.20;;;11.00;;
48727;SDS011;34527;45.618;5.130;2023-05-21T13:37:30;11.48;;;10.30;;
48727;SDS011;34527;45.618;5.130;2023-05-21T13:39:57;11.50;;;10.27;;
48727;SDS011;34527;45.618;5.130;2023-05-21T13:42:23;10.98;;;9.88;;
48727;SDS011;34527;45.618;5.130;2023-05-21T13:44:49;11.68;;;10.48;;
48727;SDS011;34527;45.618;5.130;2023-05-21T13:47:14;12.32;;;11.02;;
48727;SDS011;34527;45.618;5.130;2023-05-21T13:49:40;13.98;;;12.13;;
48727;SDS011;34527;45.618;5.130;2023-05-21T13:52:06;11.70;;;10.50;;
48727;SDS011;34527;45.618;5.130;2023-05-21T13:54:32;11.40;;;10.13;;
48727;SDS011;34527;45.618;5.130;2023-05-21T13:56:58;11.00;;;10.10;;
48727;SDS011;34527;45.618;5.130;2023-05-21T13:59:24;10.93;;;9.82;;
48727;SDS011;34527;45.618;5.130;2023-05-21T14:01:49;11.35;;;10.13;;
48727;SDS011;34527;45.618;5.130;2023-05-21T14:04:16;10.75;;;9.75;;
48727;SDS011;34527;45.618;5.130;2023-05-21T14:06:42;9.73;;;8.82;;
48727;SDS011;34527;45.618;5.130;2023-05-21T14:09:08;9.38;;;8.18;;
48727;SDS011;34527;45.618;5.130;2023-05-21T14:11:34;9.13;;;8.32;;
48727;SDS011;34527;45.618;5.130;2023-05-21T14:14:00;8.23;;;7.43;;
48727;SDS011;34527;45.618;5.130;2023-05-21T14:16:26;9.38;;;7.72;;
48727;SDS011;34527;45.618;5.130;2023-05-21T14:18:52;8.82;;;7.85;;
48727;SDS011;34527;45.618;5.130;2023-05-21T14:21:18;8.82;;;8.02;;
48727;SDS011;34527;45.618;5.130;2023-05-21T14:23:44;12.40;;;8.40;;
48727;SDS011;34527;45.618;5.130;2023-05-21T14:26:10;8.32;;;7.47;;
48727;SDS011;34527;45.618;5.130;2023-05-21T14:28:35;9.25;;;8.35;;
48727;SDS011;34527;45.618;5.130;2023-05-21T14:31:01;8.88;;;8.07;;
48727;SDS011;34527;45.618;5.130;2023-05-21T14:33:27;9.18;;;7.97;;
48727;SDS011;34527;45.618;5.130;2023-05-21T14:35:54;8.13;;;7.32;;
48727;SDS011;34527;45.618;5.130;2023-05-21T14:38:20;8.40;;;7.47;;
48727;SDS011;34527;45.618;5.130;2023-05-21T14:40:45;8.20;;;7.47;;
48727;SDS011;34527;45.618;5.130;2023-05-21T14:43:11;8.80;;;7.97;;
48727;SDS011;34527;45.618;5.130;2023-05-21T14:45:37;12.73;;;9.18;;